createdAt,value
2023-01-19T00:00:12.770Z,975.041
2023-01-19T00:01:12.606Z,974.982
2023-01-19T00:02:12.268Z,975.036
2023-01-19T00:03:12.222Z,975.013
2023-01-19T00:04:12.105Z,974.895
2023-01-19T00:05:12.836Z,974.936
2023-01-19T00:06:12.873Z,974.975
2023-01-19T00:07:12.864Z,975.074
2023-01-19T00:08:12.511Z,974.990
2023-01-19T00:09:12.258Z,974.986
2023-01-19T00:10:12.978Z,974.920
2023-01-19T00:11:12.898Z,974.967
2023-01-19T00:12:12.543Z,975.089
2023-01-19T00:13:12.228Z,975.122
2023-01-19T00:14:12.914Z,975.070
2023-01-19T00:15:12.655Z,975.019
2023-01-19T00:16:12.309Z,974.991
2023-01-19T00:17:12.984Z,975.247
2023-01-19T00:18:12.638Z,975.188
2023-01-19T00:19:12.311Z,975.117
2023-01-19T00:20:12.987Z,975.016
2023-01-19T00:21:12.639Z,975.092
2023-01-19T00:22:12.243Z,975.037
2023-01-19T00:23:12.883Z,975.178
2023-01-19T00:24:12.592Z,975.067
2023-01-19T00:25:12.308Z,975.174
2023-01-19T00:26:12.023Z,975.254
2023-01-19T00:27:12.654Z,975.250
2023-01-19T00:28:12.294Z,975.078
2023-01-19T00:29:12.994Z,975.226
2023-01-19T00:30:12.272Z,975.308
2023-01-19T00:31:12.338Z,975.168
2023-01-19T00:32:12.230Z,975.209
2023-01-19T00:33:12.951Z,975.223
2023-01-19T00:34:12.626Z,975.112
2023-01-19T00:35:12.788Z,975.253
2023-01-19T00:36:12.459Z,975.317
2023-01-19T00:37:12.135Z,975.147
2023-01-19T00:38:12.863Z,975.194
2023-01-19T00:39:12.538Z,975.159
2023-01-19T00:40:12.235Z,975.095
2023-01-19T00:41:13.011Z,975.240
2023-01-19T00:42:12.727Z,975.337
2023-01-19T00:43:12.467Z,975.264
2023-01-19T00:44:12.212Z,975.228
2023-01-19T00:45:12.853Z,975.188
2023-01-19T00:46:13.018Z,975.321
2023-01-19T00:47:12.894Z,975.198
2023-01-19T00:48:12.475Z,975.263
2023-01-19T00:49:12.175Z,975.236
2023-01-19T00:50:12.917Z,975.220
2023-01-19T00:51:12.744Z,975.163
2023-01-19T00:52:12.377Z,975.220
2023-01-19T00:53:12.098Z,975.124
2023-01-19T00:54:12.764Z,975.305
2023-01-19T00:55:12.653Z,975.220
2023-01-19T00:56:12.361Z,975.262
2023-01-19T00:57:12.038Z,975.245
2023-01-19T00:58:12.775Z,975.170
2023-01-19T00:59:12.419Z,975.376
2023-01-19T01:00:12.196Z,975.235
2023-01-19T01:01:12.992Z,975.244
2023-01-19T01:03:13.246Z,975.315
2023-01-19T01:04:13.896Z,975.264
2023-01-19T01:05:13.623Z,975.340
2023-01-19T01:06:13.455Z,975.363
2023-01-19T01:07:13.168Z,975.363
2023-01-19T01:08:13.811Z,975.342
2023-01-19T01:09:13.504Z,975.397
2023-01-19T01:10:13.286Z,975.373
2023-01-19T01:11:13.878Z,975.364
2023-01-19T01:12:13.572Z,975.509
2023-01-19T01:13:20.643Z,975.502
2023-01-19T01:14:13.394Z,975.386
2023-01-19T01:15:13.362Z,975.494
2023-01-19T01:16:13.091Z,975.573
2023-01-19T01:17:13.975Z,975.529
2023-01-19T01:18:13.670Z,975.480
2023-01-19T01:19:13.306Z,975.562
2023-01-19T01:20:13.995Z,975.563
2023-01-19T01:21:13.606Z,975.590
2023-01-19T01:22:13.320Z,975.437
2023-01-19T01:23:13.013Z,975.627
2023-01-19T01:24:13.768Z,975.542
2023-01-19T01:25:13.580Z,975.553
2023-01-19T01:26:13.287Z,975.517
2023-01-19T01:27:13.060Z,975.548
2023-01-19T01:28:13.829Z,975.512
2023-01-19T01:29:13.498Z,975.454
2023-01-19T01:30:13.191Z,975.581
2023-01-19T01:31:13.903Z,975.556
2023-01-19T01:32:13.761Z,975.610
2023-01-19T01:33:13.458Z,975.653
2023-01-19T01:34:13.959Z,975.670
2023-01-19T01:35:13.735Z,975.565
2023-01-19T01:36:13.567Z,975.522
2023-01-19T01:37:13.311Z,975.692
2023-01-19T01:38:13.947Z,975.675
2023-01-19T01:39:13.678Z,975.728
2023-01-19T01:40:13.392Z,975.704
2023-01-19T01:41:13.055Z,975.758
2023-01-19T01:42:13.222Z,975.640
2023-01-19T01:43:13.353Z,975.624
2023-01-19T01:44:13.330Z,975.649
2023-01-19T01:45:13.947Z,975.666
2023-01-19T01:46:13.822Z,975.586
2023-01-19T01:47:13.446Z,975.720
2023-01-19T01:48:13.079Z,975.694
2023-01-19T01:49:13.731Z,975.766
2023-01-19T01:50:13.463Z,975.679
2023-01-19T01:51:13.096Z,975.706
2023-01-19T01:52:13.192Z,975.717
2023-01-19T01:54:17.703Z,975.707
2023-01-19T01:55:17.404Z,975.801
2023-01-19T01:56:17.114Z,975.697
2023-01-19T01:57:17.844Z,975.739
2023-01-19T01:58:17.504Z,975.813
2023-01-19T01:59:17.081Z,975.807
2023-01-19T02:00:18.006Z,975.809
2023-01-19T02:01:17.147Z,975.821
2023-01-19T02:02:17.143Z,975.729
2023-01-19T02:03:17.629Z,975.877
2023-01-19T02:04:17.363Z,975.810
2023-01-19T02:05:18.009Z,975.904
2023-01-19T02:06:17.744Z,975.888
2023-01-19T02:07:17.412Z,975.860
2023-01-19T02:08:17.108Z,975.776
2023-01-19T02:09:17.781Z,975.858
2023-01-19T02:10:17.502Z,975.784
2023-01-19T02:11:17.223Z,975.778
2023-01-19T02:12:17.855Z,975.690
2023-01-19T02:13:17.470Z,975.729
2023-01-19T02:14:17.154Z,975.690
2023-01-19T02:15:17.840Z,975.722
2023-01-19T02:16:17.653Z,975.848
2023-01-19T02:17:17.617Z,975.854
2023-01-19T02:18:17.321Z,975.798
2023-01-19T02:19:17.010Z,975.926
2023-01-19T02:20:17.717Z,975.801
2023-01-19T02:21:17.384Z,975.783
2023-01-19T02:22:17.064Z,975.749
2023-01-19T02:23:17.788Z,975.803
2023-01-19T02:24:17.514Z,975.763
2023-01-19T02:25:17.187Z,975.928
2023-01-19T02:26:17.956Z,975.799
2023-01-19T02:27:17.863Z,975.906
2023-01-19T02:28:17.548Z,975.866
2023-01-19T02:29:17.272Z,975.895
2023-01-19T02:30:17.896Z,975.882
2023-01-19T02:31:17.874Z,975.754
2023-01-19T02:32:17.515Z,975.816
2023-01-19T02:33:17.149Z,975.903
2023-01-19T02:34:17.830Z,975.877
2023-01-19T02:35:17.658Z,975.822
2023-01-19T02:36:17.459Z,975.673
2023-01-19T02:37:17.207Z,975.764
2023-01-19T02:38:17.883Z,975.790
2023-01-19T02:39:17.563Z,975.877
2023-01-19T02:40:17.168Z,975.820
2023-01-19T02:41:16.988Z,975.665
2023-01-19T02:42:17.721Z,975.724
2023-01-19T02:43:17.622Z,975.764
2023-01-19T02:44:17.510Z,975.661
2023-01-19T02:45:17.250Z,975.634
2023-01-19T02:46:17.023Z,975.759
2023-01-19T02:47:17.940Z,975.739
2023-01-19T02:48:17.571Z,975.644
2023-01-19T02:49:17.233Z,975.696
2023-01-19T02:50:17.948Z,975.805
2023-01-19T02:51:17.641Z,975.704
2023-01-19T02:52:17.860Z,975.655
2023-01-19T02:53:17.537Z,975.772
2023-01-19T02:54:17.270Z,975.697
2023-01-19T02:55:17.919Z,975.836
2023-01-19T02:56:17.667Z,975.771
2023-01-19T02:57:17.629Z,975.695
2023-01-19T02:58:17.461Z,975.713
2023-01-19T02:59:17.184Z,975.800
2023-01-19T03:00:17.859Z,975.731
2023-01-19T03:01:17.791Z,975.849
2023-01-19T03:02:17.136Z,975.768
2023-01-19T03:03:17.087Z,975.865
2023-01-19T03:04:17.917Z,975.721
2023-01-19T03:05:17.543Z,975.881
2023-01-19T03:06:17.291Z,975.842
2023-01-19T03:07:17.899Z,975.656
2023-01-19T03:08:17.506Z,975.754
2023-01-19T03:09:17.243Z,975.820
2023-01-19T03:10:17.949Z,975.821
2023-01-19T03:11:17.773Z,975.916
2023-01-19T03:12:17.488Z,975.858
2023-01-19T03:13:17.207Z,975.777
2023-01-19T03:14:17.948Z,975.882
2023-01-19T03:15:17.676Z,975.871
2023-01-19T03:16:17.587Z,975.911
2023-01-19T03:17:17.504Z,975.953
2023-01-19T03:18:17.246Z,975.966
2023-01-19T03:19:17.895Z,975.945
2023-01-19T03:20:17.627Z,975.892
2023-01-19T03:21:17.344Z,975.974
2023-01-19T03:22:17.024Z,976.044
2023-01-19T03:23:17.969Z,975.990
2023-01-19T03:24:17.691Z,975.964
2023-01-19T03:25:17.079Z,975.799
2023-01-19T03:26:17.775Z,976.038
2023-01-19T03:27:17.420Z,976.071
2023-01-19T03:28:17.137Z,975.997
2023-01-19T03:29:17.804Z,976.013
2023-01-19T03:30:17.543Z,975.964
2023-01-19T03:31:17.443Z,976.035
2023-01-19T03:32:17.466Z,976.002
2023-01-19T03:33:17.317Z,976.032
2023-01-19T03:34:17.060Z,975.995
2023-01-19T03:35:17.851Z,975.917
2023-01-19T03:36:17.544Z,976.100
2023-01-19T03:37:17.250Z,975.998
2023-01-19T03:38:17.944Z,976.086
2023-01-19T03:39:17.830Z,976.113
2023-01-19T03:40:17.533Z,976.052
2023-01-19T03:41:17.206Z,976.007
2023-01-19T03:42:17.830Z,976.186
2023-01-19T03:43:17.597Z,976.227
2023-01-19T03:44:17.319Z,976.255
2023-01-19T03:45:17.106Z,976.264
2023-01-19T03:46:17.986Z,976.104
2023-01-19T03:47:17.804Z,976.167
2023-01-19T03:48:17.456Z,976.295
2023-01-19T03:49:17.211Z,976.217
2023-01-19T03:50:17.828Z,976.148
2023-01-19T03:51:17.556Z,976.245
2023-01-19T03:52:17.336Z,976.126
2023-01-19T03:53:17.927Z,976.219
2023-01-19T03:54:17.640Z,976.239
2023-01-19T03:55:17.332Z,976.129
2023-01-19T03:56:17.240Z,976.221
2023-01-19T03:57:17.015Z,976.143
2023-01-19T03:58:17.803Z,976.126
2023-01-19T03:59:17.600Z,976.138
2023-01-19T04:00:17.210Z,976.324
2023-01-19T04:01:17.125Z,976.174
2023-01-19T04:02:17.319Z,976.235
2023-01-19T04:03:17.587Z,976.235
2023-01-19T04:04:17.500Z,976.191
2023-01-19T04:05:17.123Z,976.330
2023-01-19T04:06:17.787Z,976.346
2023-01-19T04:07:17.487Z,976.195
2023-01-19T04:08:17.492Z,976.208
2023-01-19T04:09:19.217Z,976.211
2023-01-19T04:10:18.007Z,976.240
2023-01-19T04:11:17.729Z,976.268
2023-01-19T04:12:17.454Z,976.278
2023-01-19T04:13:17.228Z,976.250
2023-01-19T04:14:17.977Z,976.184
2023-01-19T04:15:17.656Z,976.210
2023-01-19T04:16:17.967Z,976.292
2023-01-19T04:17:18.181Z,976.377
2023-01-19T04:18:17.290Z,976.427
2023-01-19T04:19:17.031Z,976.490
2023-01-19T04:20:17.699Z,976.426
2023-01-19T04:21:17.632Z,976.472
2023-01-19T04:22:17.268Z,976.417
2023-01-19T04:23:17.961Z,976.418
2023-01-19T04:24:17.632Z,976.509
2023-01-19T04:25:17.307Z,976.491
2023-01-19T04:26:17.288Z,976.475
2023-01-19T04:27:17.916Z,976.463
2023-01-19T04:28:17.587Z,976.395
2023-01-19T04:29:17.191Z,976.523
2023-01-19T04:30:17.349Z,976.363
2023-01-19T04:31:17.329Z,976.496
2023-01-19T04:32:17.148Z,976.413
2023-01-19T04:33:17.116Z,976.464
2023-01-19T04:34:17.776Z,976.346
2023-01-19T04:35:17.488Z,976.319
2023-01-19T04:36:17.027Z,976.325
2023-01-19T04:37:17.675Z,976.329
2023-01-19T04:38:17.759Z,976.293
2023-01-19T04:39:17.507Z,976.268
2023-01-19T04:40:17.281Z,976.207
2023-01-19T04:41:17.968Z,976.193
2023-01-19T04:42:17.675Z,976.165
2023-01-19T04:43:17.390Z,976.127
2023-01-19T04:44:17.039Z,976.316
2023-01-19T04:45:17.840Z,976.293
2023-01-19T04:46:17.557Z,976.352
2023-01-19T04:47:17.311Z,976.269
2023-01-19T04:48:17.080Z,976.342
2023-01-19T04:49:17.764Z,976.338
2023-01-19T04:50:17.423Z,976.408
2023-01-19T04:51:17.221Z,976.299
2023-01-19T04:52:17.103Z,976.276
2023-01-19T04:53:17.792Z,976.323
2023-01-19T04:54:17.476Z,976.402
2023-01-19T04:55:17.611Z,976.348
2023-01-19T04:56:17.303Z,976.319
2023-01-19T04:57:17.143Z,976.216
2023-01-19T04:58:17.797Z,976.266
2023-01-19T04:59:17.734Z,976.359
2023-01-19T05:00:17.553Z,976.456
2023-01-19T05:01:17.182Z,976.305
2023-01-19T05:02:17.291Z,976.515
2023-01-19T05:03:17.217Z,976.386
2023-01-19T05:04:17.932Z,976.399
2023-01-19T05:05:17.025Z,976.432
2023-01-19T05:06:17.627Z,976.383
2023-01-19T05:07:17.631Z,976.481
2023-01-19T05:08:17.559Z,976.360
2023-01-19T05:09:17.163Z,976.344
2023-01-19T05:10:17.875Z,976.471
2023-01-19T05:11:17.501Z,976.468
2023-01-19T05:12:17.284Z,976.398
2023-01-19T05:13:17.118Z,976.406
2023-01-19T05:14:17.451Z,976.430
2023-01-19T05:15:17.190Z,976.437
2023-01-19T05:16:17.980Z,976.562
2023-01-19T05:17:17.910Z,976.327
2023-01-19T05:18:17.564Z,976.238
2023-01-19T05:19:17.208Z,976.412
2023-01-19T05:20:17.166Z,976.411
2023-01-19T05:21:17.180Z,976.473
2023-01-19T05:22:17.961Z,976.531
2023-01-19T05:23:17.828Z,976.387
2023-01-19T05:24:17.560Z,976.312
2023-01-19T05:25:17.327Z,976.447
2023-01-19T05:26:17.985Z,976.479
2023-01-19T05:27:17.759Z,976.419
2023-01-19T05:28:17.470Z,976.444
2023-01-19T05:29:17.142Z,976.450
2023-01-19T05:30:17.787Z,976.618
2023-01-19T05:31:19.461Z,976.607
2023-01-19T05:32:17.029Z,976.448
2023-01-19T05:33:17.735Z,976.475
2023-01-19T05:34:17.407Z,976.295
2023-01-19T05:35:20.085Z,976.513
2023-01-19T05:36:17.752Z,976.493
2023-01-19T05:37:17.462Z,976.529
2023-01-19T05:38:20.931Z,976.475
2023-01-19T05:39:17.274Z,976.589
2023-01-19T05:40:17.943Z,976.488
2023-01-19T05:41:17.766Z,976.600
2023-01-19T05:42:17.510Z,976.513
2023-01-19T05:43:17.196Z,976.564
2023-01-19T05:44:17.963Z,976.509
2023-01-19T05:45:17.683Z,976.385
2023-01-19T05:46:17.403Z,976.596
2023-01-19T05:47:17.530Z,976.583
2023-01-19T05:48:17.189Z,976.580
2023-01-19T05:49:17.860Z,976.538
2023-01-19T05:50:17.605Z,976.611
2023-01-19T05:51:17.266Z,976.600
2023-01-19T05:52:17.938Z,976.552
2023-01-19T05:53:17.815Z,976.580
2023-01-19T05:54:17.542Z,976.584
2023-01-19T05:55:17.203Z,976.590
2023-01-19T05:56:17.834Z,976.774
2023-01-19T05:57:17.510Z,976.654
2023-01-19T05:58:17.414Z,976.717
2023-01-19T05:59:17.163Z,976.621
2023-01-19T06:00:17.874Z,976.715
2023-01-19T06:01:17.726Z,976.750
2023-01-19T06:02:17.151Z,976.721
2023-01-19T06:03:18.110Z,976.728
2023-01-19T06:04:17.158Z,976.780
2023-01-19T06:05:17.032Z,976.851
2023-01-19T06:06:17.710Z,976.675
2023-01-19T06:07:17.403Z,976.795
2023-01-19T06:08:17.233Z,976.765
2023-01-19T06:09:17.875Z,976.675
2023-01-19T06:10:17.541Z,976.735
2023-01-19T06:11:17.185Z,976.687
2023-01-19T06:12:17.908Z,976.763
2023-01-19T06:13:17.684Z,976.611
2023-01-19T06:14:17.527Z,976.753
2023-01-19T06:15:17.208Z,976.689
2023-01-19T06:16:18.006Z,976.750
2023-01-19T06:17:17.844Z,976.638
2023-01-19T06:18:17.520Z,976.774
2023-01-19T06:19:17.308Z,976.667
2023-01-19T06:20:17.948Z,976.771
2023-01-19T06:21:17.735Z,976.792
2023-01-19T06:22:17.377Z,976.713
2023-01-19T06:23:17.032Z,976.771
2023-01-19T06:24:17.687Z,976.718
2023-01-19T06:25:17.347Z,976.631
2023-01-19T06:26:17.996Z,976.683
2023-01-19T06:27:17.647Z,976.695
2023-01-19T06:28:17.374Z,976.733
2023-01-19T06:29:17.043Z,976.722
2023-01-19T06:30:17.683Z,976.675
2023-01-19T06:31:17.661Z,976.682
2023-01-19T06:32:17.449Z,976.560
2023-01-19T06:33:17.115Z,976.628
2023-01-19T06:34:17.763Z,976.766
2023-01-19T06:35:17.914Z,976.554
2023-01-19T06:36:17.652Z,976.755
2023-01-19T06:37:17.284Z,976.744
2023-01-19T06:38:17.169Z,976.758
2023-01-19T06:39:17.944Z,976.653
2023-01-19T06:40:17.665Z,976.619
2023-01-19T06:41:17.511Z,976.777
2023-01-19T06:42:17.163Z,976.791
2023-01-19T06:43:17.948Z,976.711
2023-01-19T06:44:17.595Z,976.797
2023-01-19T06:45:17.315Z,976.920
2023-01-19T06:46:17.240Z,976.843
2023-01-19T06:47:17.879Z,976.931
2023-01-19T06:48:17.790Z,976.855
2023-01-19T06:49:17.531Z,976.873
2023-01-19T06:50:17.167Z,976.846
2023-01-19T06:51:18.028Z,976.944
2023-01-19T06:52:17.719Z,976.952
2023-01-19T06:53:17.371Z,976.949
2023-01-19T06:54:17.234Z,976.951
2023-01-19T06:55:17.718Z,976.927
2023-01-19T06:57:17.187Z,976.926
2023-01-19T06:58:17.127Z,976.860
2023-01-19T06:59:17.883Z,976.933
2023-01-19T07:00:17.628Z,976.905
2023-01-19T07:01:17.120Z,977.027
2023-01-19T07:02:25.916Z,977.119
2023-01-19T07:03:17.952Z,977.022
2023-01-19T07:04:17.716Z,976.944
2023-01-19T07:05:17.462Z,976.980
2023-01-19T07:06:17.418Z,977.048
2023-01-19T07:07:17.103Z,977.046
2023-01-19T07:08:17.935Z,977.011
2023-01-19T07:09:17.715Z,976.966
2023-01-19T07:10:17.290Z,977.020
2023-01-19T07:12:26.759Z,977.141
2023-01-19T07:13:26.664Z,977.024
2023-01-19T07:14:26.523Z,977.059
2023-01-19T07:15:26.371Z,977.058
2023-01-19T07:16:26.558Z,977.133
2023-01-19T07:17:26.453Z,977.031
2023-01-19T07:18:26.215Z,977.149
2023-01-19T07:19:26.868Z,977.132
2023-01-19T07:20:26.768Z,977.092
2023-01-19T07:21:28.299Z,977.147
2023-01-19T07:22:26.019Z,977.073
2023-01-19T07:23:26.630Z,977.111
2023-01-19T07:24:26.499Z,977.273
2023-01-19T07:25:26.299Z,977.156
2023-01-19T07:26:26.193Z,977.186
2023-01-19T07:27:26.058Z,977.072
2023-01-19T07:28:26.762Z,977.037
2023-01-19T07:29:26.533Z,977.115
2023-01-19T07:30:26.550Z,977.116
2023-01-19T07:31:26.935Z,977.233
2023-01-19T07:32:26.959Z,977.218
2023-01-19T07:33:26.482Z,977.187
2023-01-19T07:34:26.207Z,977.097
2023-01-19T07:35:26.044Z,977.048
2023-01-19T07:36:26.744Z,977.238
2023-01-19T07:37:26.508Z,977.139
2023-01-19T07:38:26.469Z,977.240
2023-01-19T07:39:26.243Z,977.248
2023-01-19T07:40:26.048Z,977.215
2023-01-19T07:41:26.803Z,977.264
2023-01-19T07:42:26.815Z,977.275
2023-01-19T07:43:26.523Z,977.151
2023-01-19T07:44:26.428Z,977.275
2023-01-19T07:45:27.873Z,977.162
2023-01-19T07:46:26.107Z,977.328
2023-01-19T07:47:26.880Z,977.391
2023-01-19T07:48:26.809Z,977.310
2023-01-19T07:49:26.603Z,977.241
2023-01-19T07:50:26.514Z,977.312
2023-01-19T07:51:26.347Z,977.260
2023-01-19T07:52:26.153Z,977.319
2023-01-19T07:53:26.730Z,977.240
2023-01-19T07:54:26.588Z,977.293
2023-01-19T07:55:26.327Z,977.419
2023-01-19T07:56:26.182Z,977.295
2023-01-19T07:57:26.947Z,977.424
2023-01-19T07:58:26.684Z,977.520
2023-01-19T07:59:26.463Z,977.407
2023-01-19T08:00:26.221Z,977.489
2023-01-19T08:01:26.673Z,977.528
2023-01-19T08:02:26.797Z,977.539
2023-01-19T08:03:27.014Z,977.446
2023-01-19T08:04:26.787Z,977.518
2023-01-19T08:05:26.768Z,977.567
2023-01-19T08:06:26.581Z,977.528
2023-01-19T08:07:26.350Z,977.588
2023-01-19T08:08:26.273Z,977.606
2023-01-19T08:09:26.136Z,977.546
2023-01-19T08:10:26.879Z,977.497
2023-01-19T08:11:26.763Z,977.700
2023-01-19T08:12:26.489Z,977.509
2023-01-19T08:13:26.163Z,977.615
2023-01-19T08:14:26.991Z,977.594
2023-01-19T08:15:26.741Z,977.675
2023-01-19T08:16:26.875Z,977.726
2023-01-19T08:17:26.650Z,977.577
2023-01-19T08:18:26.511Z,977.785
2023-01-19T08:19:26.321Z,977.806
2023-01-19T08:20:26.052Z,977.767
2023-01-19T08:21:26.815Z,977.821
2023-01-19T08:22:26.666Z,977.778
2023-01-19T08:23:26.900Z,977.705
2023-01-19T08:24:26.499Z,977.859
2023-01-19T08:25:26.737Z,977.738
2023-01-19T08:26:26.889Z,977.774
2023-01-19T08:27:26.835Z,977.778
2023-01-19T08:28:26.795Z,977.811
2023-01-19T08:29:26.543Z,977.845
2023-01-19T08:30:26.292Z,977.823
2023-01-19T08:32:31.290Z,977.791
2023-01-19T08:33:31.208Z,977.787
2023-01-19T08:34:31.197Z,977.984
2023-01-19T08:35:31.955Z,977.900
2023-01-19T08:36:31.795Z,977.866
2023-01-19T08:37:34.045Z,977.866
2023-01-19T08:38:31.992Z,977.935
2023-01-19T08:39:31.768Z,977.853
2023-01-19T08:40:31.488Z,977.848
2023-01-19T08:41:31.286Z,977.924
2023-01-19T08:42:31.996Z,977.956
2023-01-19T08:43:31.095Z,977.870
2023-01-19T08:44:31.896Z,977.962
2023-01-19T08:45:31.037Z,977.951
2023-01-19T08:46:32.016Z,978.013
2023-01-19T08:47:31.891Z,977.860
2023-01-19T08:48:31.836Z,977.985
2023-01-19T08:49:31.636Z,978.000
2023-01-19T08:50:31.439Z,978.096
2023-01-19T08:51:31.252Z,978.046
2023-01-19T08:52:31.114Z,978.075
2023-01-19T08:53:31.903Z,977.936
2023-01-19T08:54:31.741Z,977.974
2023-01-19T08:55:31.474Z,978.111
2023-01-19T08:56:31.341Z,978.014
2023-01-19T08:57:31.035Z,978.142
2023-01-19T08:58:31.719Z,978.048
2023-01-19T09:00:31.271Z,977.993
2023-01-19T09:01:31.540Z,978.132
2023-01-19T09:02:31.306Z,978.103
2023-01-19T09:03:31.495Z,978.167
2023-01-19T09:04:31.315Z,978.197
2023-01-19T09:05:31.215Z,978.243
2023-01-19T09:06:31.971Z,978.262
2023-01-19T09:07:32.575Z,978.209
2023-01-19T09:08:31.279Z,978.314
2023-01-19T09:09:31.102Z,978.177
2023-01-19T09:10:31.031Z,978.264
2023-01-19T09:11:31.975Z,978.107
2023-01-19T09:12:31.760Z,978.190
2023-01-19T09:13:31.534Z,978.299
2023-01-19T09:14:31.349Z,978.256
2023-01-19T09:15:31.307Z,978.315
2023-01-19T09:16:31.362Z,978.262
2023-01-19T09:17:31.075Z,978.151
2023-01-19T09:18:31.895Z,978.202
2023-01-19T09:19:32.587Z,978.184
2023-01-19T09:20:31.079Z,978.246
2023-01-19T09:21:31.993Z,978.281
2023-01-19T09:22:31.743Z,978.260
2023-01-19T09:23:31.561Z,978.393
2023-01-19T09:24:31.334Z,978.319
2023-01-19T09:25:31.180Z,978.249
2023-01-19T09:26:33.043Z,978.333
2023-01-19T09:27:31.071Z,978.417
2023-01-19T09:28:31.890Z,978.287
2023-01-19T09:29:31.661Z,978.335
2023-01-19T09:30:31.376Z,978.423
2023-01-19T09:31:31.692Z,978.343
2023-01-19T09:32:31.555Z,978.388
2023-01-19T09:33:31.334Z,978.240
2023-01-19T09:34:31.229Z,978.467
2023-01-19T09:35:31.928Z,978.440
2023-01-19T09:36:31.719Z,978.493
2023-01-19T09:37:31.981Z,978.471
2023-01-19T09:38:31.740Z,978.461
2023-01-19T09:39:31.498Z,978.383
2023-01-19T09:40:31.815Z,978.550
2023-01-19T09:41:31.634Z,978.569
2023-01-19T09:42:31.489Z,978.554
2023-01-19T09:43:31.206Z,978.539
2023-01-19T09:44:31.127Z,978.547
2023-01-19T09:45:31.895Z,978.429
2023-01-19T09:46:31.878Z,978.553
2023-01-19T09:47:31.655Z,978.475
2023-01-19T09:48:31.370Z,978.487
2023-01-19T09:49:31.338Z,978.502
2023-01-19T09:50:32.239Z,978.371
2023-01-19T09:51:31.983Z,978.292
2023-01-19T09:52:31.703Z,978.511
2023-01-19T09:53:31.668Z,978.447
2023-01-19T09:54:31.577Z,978.336
2023-01-19T09:55:31.342Z,978.368
2023-01-19T09:56:31.203Z,978.469
2023-01-19T09:57:31.296Z,978.341
2023-01-19T09:58:31.336Z,978.476
2023-01-19T09:59:31.103Z,978.491
2023-01-19T10:00:31.921Z,978.383
2023-01-19T10:01:32.728Z,978.425
2023-01-19T10:02:32.012Z,978.282
2023-01-19T10:03:32.016Z,978.430
2023-01-19T10:04:31.807Z,978.440
2023-01-19T10:05:31.573Z,978.352
2023-01-19T10:06:31.344Z,978.486
2023-01-19T10:07:31.203Z,978.353
2023-01-19T10:08:31.960Z,978.398
2023-01-19T10:09:31.756Z,978.271
2023-01-19T10:10:31.526Z,978.508
2023-01-19T10:11:38.056Z,978.316
2023-01-19T10:12:31.103Z,978.341
2023-01-19T10:13:31.875Z,978.378
2023-01-19T10:14:31.639Z,978.381
2023-01-19T10:15:31.543Z,978.375
2023-01-19T10:16:31.343Z,978.381
2023-01-19T10:17:31.094Z,978.189
2023-01-19T10:18:31.939Z,978.339
2023-01-19T10:19:31.759Z,978.229
2023-01-19T10:20:31.681Z,978.336
2023-01-19T10:21:31.975Z,978.337
2023-01-19T10:22:31.927Z,978.174
2023-01-19T10:23:31.832Z,978.307
2023-01-19T10:24:31.853Z,978.408
2023-01-19T10:25:31.649Z,978.402
2023-01-19T10:26:31.640Z,978.377
2023-01-19T10:27:31.534Z,978.291
2023-01-19T10:28:31.372Z,978.309
2023-01-19T10:29:31.295Z,978.453
2023-01-19T10:30:31.200Z,978.378
2023-01-19T10:31:31.290Z,978.353
2023-01-19T10:32:31.715Z,978.382
2023-01-19T10:33:31.988Z,978.398
2023-01-19T10:34:31.900Z,978.212
2023-01-19T10:35:31.904Z,978.313
2023-01-19T10:36:31.816Z,978.379
2023-01-19T10:37:31.749Z,978.379
2023-01-19T10:38:31.862Z,978.383
2023-01-19T10:39:34.849Z,978.377
2023-01-19T10:40:31.445Z,978.302
2023-01-19T10:41:31.404Z,978.306
2023-01-19T10:42:31.510Z,978.399
2023-01-19T10:43:31.276Z,978.409
2023-01-19T10:44:31.368Z,978.282
2023-01-19T10:45:31.352Z,978.297
2023-01-19T10:46:31.503Z,978.412
2023-01-19T10:47:31.339Z,978.403
2023-01-19T10:48:31.252Z,978.365
2023-01-19T10:49:31.210Z,978.148
2023-01-19T10:50:31.253Z,978.412
2023-01-19T10:51:31.035Z,978.449
2023-01-19T10:52:32.005Z,978.259
2023-01-19T10:53:31.162Z,978.443
2023-01-19T10:54:31.031Z,978.324
2023-01-19T10:55:31.930Z,978.435
2023-01-19T10:56:31.938Z,978.241
2023-01-19T10:57:31.964Z,978.274
2023-01-19T10:58:31.917Z,978.357
2023-01-19T10:59:31.857Z,978.429
2023-01-19T11:00:31.937Z,978.359
2023-01-19T11:01:32.043Z,978.381
2023-01-19T11:02:31.791Z,978.230
2023-01-19T11:03:31.387Z,978.332
2023-01-19T11:04:31.344Z,978.225
2023-01-19T11:05:31.216Z,978.253
2023-01-19T11:06:31.131Z,978.308
2023-01-19T11:07:31.920Z,978.257
2023-01-19T11:08:31.720Z,978.188
2023-01-19T11:09:31.563Z,978.230
2023-01-19T11:10:31.372Z,978.340
2023-01-19T11:11:31.363Z,978.299
2023-01-19T11:12:31.135Z,978.296
2023-01-19T11:13:31.151Z,978.226
2023-01-19T11:14:31.871Z,978.200
2023-01-19T11:15:31.684Z,978.129
2023-01-19T11:16:31.718Z,978.197
2023-01-19T11:17:31.844Z,978.215
2023-01-19T11:18:31.616Z,978.166
2023-01-19T11:19:31.510Z,978.159
2023-01-19T11:20:31.251Z,978.209
2023-01-19T11:21:31.067Z,978.180
2023-01-19T11:22:31.951Z,978.146
2023-01-19T11:23:31.906Z,978.171
2023-01-19T11:24:31.669Z,978.204
2023-01-19T11:25:31.579Z,978.100
2023-01-19T11:26:31.587Z,978.181
2023-01-19T11:27:31.335Z,978.109
2023-01-19T11:28:31.032Z,978.079
2023-01-19T11:29:31.966Z,978.060
2023-01-19T11:30:31.700Z,978.135
2023-01-19T11:31:31.619Z,978.164
2023-01-19T11:32:31.712Z,978.183
2023-01-19T11:33:31.468Z,978.146
2023-01-19T11:34:31.990Z,977.979
2023-01-19T11:35:31.032Z,978.010
2023-01-19T11:36:31.852Z,978.088
2023-01-19T11:37:31.738Z,978.096
2023-01-19T11:38:31.467Z,978.127
2023-01-19T11:39:31.179Z,978.061
2023-01-19T11:40:31.942Z,978.048
2023-01-19T11:41:31.855Z,977.929
2023-01-19T11:42:31.632Z,978.075
2023-01-19T11:43:43.428Z,978.009
2023-01-19T11:44:31.186Z,977.945
2023-01-19T11:45:31.874Z,977.969
2023-01-19T11:46:32.012Z,978.043
2023-01-19T11:47:31.179Z,977.976
2023-01-19T11:48:31.996Z,977.901
2023-01-19T11:49:31.827Z,978.054
2023-01-19T11:50:31.612Z,978.000
2023-01-19T11:51:31.472Z,977.945
2023-01-19T11:52:31.646Z,978.086
2023-01-19T11:53:31.404Z,977.945
2023-01-19T11:54:31.599Z,978.045
2023-01-19T11:55:31.428Z,977.903
2023-01-19T11:56:31.097Z,978.020
2023-01-19T11:57:31.040Z,977.908
2023-01-19T11:58:31.498Z,977.976
2023-01-19T11:59:31.484Z,978.123
2023-01-19T12:00:31.392Z,977.909
2023-01-19T12:01:31.218Z,978.058
2023-01-19T12:02:31.249Z,977.993
2023-01-19T12:03:31.247Z,978.109
2023-01-19T12:04:31.226Z,977.982
2023-01-19T12:05:31.976Z,978.086
2023-01-19T12:06:31.710Z,977.989
2023-01-19T12:07:31.497Z,977.970
2023-01-19T12:09:31.867Z,977.930
2023-01-19T12:10:31.872Z,978.058
2023-01-19T12:11:31.648Z,977.884
2023-01-19T12:12:31.385Z,977.905